sensor_id;sensor_type;location;lat;lon;timestamp;P1;durP1;ratioP1;P2;durP2;ratioP2
24425;SDS011;12611;44.446;26.000;2023-04-24T00:00:22;2.83;;;1.43;;
24425;SDS011;12611;44.446;26.000;2023-04-24T00:02:51;2.83;;;1.20;;
24425;SDS011;12611;44.446;26.000;2023-04-24T00:05:23;2.60;;;1.40;;
24425;SDS011;12611;44.446;26.000;2023-04-24T00:07:52;2.03;;;1.43;;
24425;SDS011;12611;44.446;26.000;2023-04-24T00:10:21;4.03;;;1.83;;
24425;SDS011;12611;44.446;26.000;2023-04-24T00:12:51;3.13;;;1.73;;
24425;SDS011;12611;44.446;26.000;2023-04-24T00:15:19;4.03;;;1.43;;
24425;SDS011;12611;44.446;26.000;2023-04-24T00:17:48;2.93;;;1.60;;
24425;SDS011;12611;44.446;26.000;2023-04-24T00:20:16;2.40;;;1.30;;
24425;SDS011;12611;44.446;26.000;2023-04-24T00:22:45;3.07;;;1.60;;
24425;SDS011;12611;44.446;26.000;2023-04-24T00:25:13;3.30;;;1.53;;
24425;SDS011;12611;44.446;26.000;2023-04-24T00:27:42;3.70;;;1.63;;
24425;SDS011;12611;44.446;26.000;2023-04-24T00:30:12;2.77;;;1.63;;
24425;SDS011;12611;44.446;26.000;2023-04-24T00:32:40;2.47;;;1.33;;
24425;SDS011;12611;44.446;26.000;2023-04-24T00:35:08;2.13;;;1.73;;
24425;SDS011;12611;44.446;26.000;2023-04-24T00:37:37;4.23;;;1.93;;
24425;SDS011;12611;44.446;26.000;2023-04-24T00:40:06;5.43;;;2.30;;
24425;SDS011;12611;44.446;26.000;2023-04-24T00:42:35;6.93;;;1.87;;
24425;SDS011;12611;44.446;26.000;2023-04-24T00:45:04;2.93;;;1.90;;
24425;SDS011;12611;44.446;26.000;2023-04-24T00:47:35;3.40;;;1.93;;
24425;SDS011;12611;44.446;26.000;2023-04-24T00:50:03;7.70;;;3.00;;
24425;SDS011;12611;44.446;26.000;2023-04-24T00:52:33;4.10;;;2.77;;
24425;SDS011;12611;44.446;26.000;2023-04-24T00:55:02;3.77;;;2.43;;
24425;SDS011;12611;44.446;26.000;2023-04-24T00:57:31;6.70;;;1.83;;
24425;SDS011;12611;44.446;26.000;2023-04-24T01:00:00;2.90;;;2.23;;
24425;SDS011;12611;44.446;26.000;2023-04-24T01:02:29;2.23;;;1.30;;
24425;SDS011;12611;44.446;26.000;2023-04-24T01:05:02;4.73;;;2.17;;
24425;SDS011;12611;44.446;26.000;2023-04-24T01:07:31;2.13;;;1.50;;
24425;SDS011;12611;44.446;26.000;2023-04-24T01:10:00;3.90;;;1.83;;
24425;SDS011;12611;44.446;26.000;2023-04-24T01:12:28;2.97;;;1.87;;
24425;SDS011;12611;44.446;26.000;2023-04-24T01:14:56;4.40;;;2.57;;
24425;SDS011;12611;44.446;26.000;2023-04-24T01:17:25;4.57;;;2.67;;
24425;SDS011;12611;44.446;26.000;2023-04-24T01:19:54;5.60;;;2.30;;
24425;SDS011;12611;44.446;26.000;2023-04-24T01:22:24;4.47;;;2.13;;
24425;SDS011;12611;44.446;26.000;2023-04-24T01:24:53;8.83;;;2.03;;
24425;SDS011;12611;44.446;26.000;2023-04-24T01:27:21;4.33;;;2.23;;
24425;SDS011;12611;44.446;26.000;2023-04-24T01:29:50;4.10;;;1.97;;
24425;SDS011;12611;44.446;26.000;2023-04-24T01:32:18;5.33;;;1.87;;
24425;SDS011;12611;44.446;26.000;2023-04-24T01:34:47;4.20;;;1.97;;
24425;SDS011;12611;44.446;26.000;2023-04-24T01:37:16;4.63;;;1.90;;
24425;SDS011;12611;44.446;26.000;2023-04-24T01:39:46;6.13;;;2.03;;
24425;SDS011;12611;44.446;26.000;2023-04-24T01:42:14;2.67;;;1.90;;
24425;SDS011;12611;44.446;26.000;2023-04-24T01:44:43;4.57;;;1.93;;
24425;SDS011;12611;44.446;26.000;2023-04-24T01:47:12;4.67;;;2.23;;
24425;SDS011;12611;44.446;26.000;2023-04-24T01:49:41;3.17;;;2.13;;
24425;SDS011;12611;44.446;26.000;2023-04-24T01:52:10;7.60;;;2.90;;
24425;SDS011;12611;44.446;26.000;2023-04-24T01:54:38;3.73;;;2.67;;
24425;SDS011;12611;44.446;26.000;2023-04-24T01:57:08;2.40;;;1.90;;
24425;SDS011;12611;44.446;26.000;2023-04-24T01:59:36;2.70;;;1.60;;
24425;SDS011;12611;44.446;26.000;2023-04-24T02:02:05;3.47;;;1.83;;
24425;SDS011;12611;44.446;26.000;2023-04-24T02:04:34;2.53;;;1.70;;
24425;SDS011;12611;44.446;26.000;2023-04-24T02:07:02;3.17;;;2.20;;
24425;SDS011;12611;44.446;26.000;2023-04-24T02:09:30;1.87;;;1.37;;
24425;SDS011;12611;44.446;26.000;2023-04-24T02:11:59;3.90;;;1.50;;
24425;SDS011;12611;44.446;26.000;2023-04-24T02:14:29;5.13;;;2.10;;
24425;SDS011;12611;44.446;26.000;2023-04-24T02:16:57;4.00;;;1.90;;
24425;SDS011;12611;44.446;26.000;2023-04-24T02:19:27;3.03;;;1.87;;
24425;SDS011;12611;44.446;26.000;2023-04-24T02:21:55;4.73;;;2.20;;
24425;SDS011;12611;44.446;26.000;2023-04-24T02:24:23;3.20;;;1.80;;
24425;SDS011;12611;44.446;26.000;2023-04-24T02:26:51;3.00;;;1.80;;
24425;SDS011;12611;44.446;26.000;2023-04-24T02:29:20;3.93;;;2.40;;
24425;SDS011;12611;44.446;26.000;2023-04-24T02:31:50;3.27;;;2.07;;
24425;SDS011;12611;44.446;26.000;2023-04-24T02:34:18;3.47;;;1.83;;
24425;SDS011;12611;44.446;26.000;2023-04-24T02:36:47;3.90;;;1.70;;
24425;SDS011;12611;44.446;26.000;2023-04-24T02:39:15;6.17;;;1.90;;
24425;SDS011;12611;44.446;26.000;2023-04-24T02:41:45;3.37;;;2.40;;
24425;SDS011;12611;44.446;26.000;2023-04-24T02:44:13;3.30;;;1.83;;
24425;SDS011;12611;44.446;26.000;2023-04-24T02:46:41;5.03;;;1.97;;
24425;SDS011;12611;44.446;26.000;2023-04-24T02:49:11;3.47;;;1.80;;
24425;SDS011;12611;44.446;26.000;2023-04-24T02:51:40;4.73;;;1.90;;
24425;SDS011;12611;44.446;26.000;2023-04-24T02:54:08;4.70;;;2.83;;
24425;SDS011;12611;44.446;26.000;2023-04-24T02:56:37;11.57;;;3.10;;
24425;SDS011;12611;44.446;26.000;2023-04-24T02:59:05;4.53;;;1.90;;
24425;SDS011;12611;44.446;26.000;2023-04-24T03:01:33;6.87;;;2.03;;
24425;SDS011;12611;44.446;26.000;2023-04-24T03:04:02;5.27;;;2.63;;
24425;SDS011;12611;44.446;26.000;2023-04-24T03:06:32;4.47;;;2.57;;
24425;SDS011;12611;44.446;26.000;2023-04-24T03:09:01;4.27;;;2.20;;
24425;SDS011;12611;44.446;26.000;2023-04-24T03:11:31;2.90;;;1.73;;
24425;SDS011;12611;44.446;26.000;2023-04-24T03:13:59;3.20;;;2.10;;
24425;SDS011;12611;44.446;26.000;2023-04-24T03:16:27;4.10;;;1.90;;
24425;SDS011;12611;44.446;26.000;2023-04-24T03:18:56;3.93;;;2.03;;
24425;SDS011;12611;44.446;26.000;2023-04-24T03:21:24;4.13;;;2.33;;
24425;SDS011;12611;44.446;26.000;2023-04-24T03:23:55;2.03;;;1.80;;
24425;SDS011;12611;44.446;26.000;2023-04-24T03:26:23;4.27;;;2.00;;
24425;SDS011;12611;44.446;26.000;2023-04-24T03:28:51;3.13;;;2.43;;
24425;SDS011;12611;44.446;26.000;2023-04-24T03:31:20;3.50;;;2.07;;
24425;SDS011;12611;44.446;26.000;2023-04-24T03:33:48;4.40;;;2.77;;
24425;SDS011;12611;44.446;26.000;2023-04-24T03:36:17;5.17;;;2.60;;
24425;SDS011;12611;44.446;26.000;2023-04-24T03:38:45;2.73;;;1.90;;
24425;SDS011;12611;44.446;26.000;2023-04-24T03:41:15;3.90;;;2.03;;
24425;SDS011;12611;44.446;26.000;2023-04-24T03:43:43;2.63;;;1.50;;
24425;SDS011;12611;44.446;26.000;2023-04-24T03:46:12;6.10;;;2.40;;
24425;SDS011;12611;44.446;26.000;2023-04-24T03:48:41;4.60;;;1.80;;
24425;SDS011;12611;44.446;26.000;2023-04-24T03:51:10;3.83;;;2.07;;
24425;SDS011;12611;44.446;26.000;2023-04-24T03:53:38;4.37;;;1.97;;
24425;SDS011;12611;44.446;26.000;2023-04-24T03:56:06;4.37;;;2.13;;
24425;SDS011;12611;44.446;26.000;2023-04-24T03:58:36;2.43;;;1.53;;
24425;SDS011;12611;44.446;26.000;2023-04-24T04:01:04;2.33;;;1.60;;
24425;SDS011;12611;44.446;26.000;2023-04-24T04:03:33;5.13;;;2.60;;
24425;SDS011;12611;44.446;26.000;2023-04-24T04:06:02;4.47;;;3.27;;
24425;SDS011;12611;44.446;26.000;2023-04-24T04:08:31;7.30;;;2.00;;
24425;SDS011;12611;44.446;26.000;2023-04-24T04:10:59;2.83;;;1.80;;
24425;SDS011;12611;44.446;26.000;2023-04-24T04:13:30;4.30;;;2.10;;
24425;SDS011;12611;44.446;26.000;2023-04-24T04:16:00;3.90;;;1.83;;
24425;SDS011;12611;44.446;26.000;2023-04-24T04:18:28;3.20;;;1.97;;
24425;SDS011;12611;44.446;26.000;2023-04-24T04:20:56;3.00;;;1.57;;
24425;SDS011;12611;44.446;26.000;2023-04-24T04:23:25;2.63;;;1.77;;
24425;SDS011;12611;44.446;26.000;2023-04-24T04:25:54;4.60;;;2.27;;
24425;SDS011;12611;44.446;26.000;2023-04-24T04:28:22;3.83;;;1.87;;
24425;SDS011;12611;44.446;26.000;2023-04-24T04:30:51;7.45;;;2.70;;
24425;SDS011;12611;44.446;26.000;2023-04-24T04:33:21;5.27;;;1.50;;
24425;SDS011;12611;44.446;26.000;2023-04-24T04:35:50;4.70;;;2.53;;
24425;SDS011;12611;44.446;26.000;2023-04-24T04:38:19;3.87;;;2.00;;
24425;SDS011;12611;44.446;26.000;2023-04-24T04:40:47;4.17;;;1.90;;
24425;SDS011;12611;44.446;26.000;2023-04-24T04:43:16;6.07;;;2.10;;
24425;SDS011;12611;44.446;26.000;2023-04-24T04:45:44;3.23;;;2.00;;
24425;SDS011;12611;44.446;26.000;2023-04-24T04:48:14;5.83;;;2.03;;
24425;SDS011;12611;44.446;26.000;2023-04-24T04:50:45;3.80;;;1.77;;
24425;SDS011;12611;44.446;26.000;2023-04-24T04:53:13;3.83;;;2.03;;
24425;SDS011;12611;44.446;26.000;2023-04-24T04:55:42;3.10;;;2.03;;
24425;SDS011;12611;44.446;26.000;2023-04-24T04:58:10;4.23;;;1.80;;
24425;SDS011;12611;44.446;26.000;2023-04-24T05:00:38;10.00;;;1.83;;
24425;SDS011;12611;44.446;26.000;2023-04-24T05:03:07;8.60;;;2.33;;
24425;SDS011;12611;44.446;26.000;2023-04-24T05:05:48;4.80;;;2.27;;
24425;SDS011;12611;44.446;26.000;2023-04-24T05:08:16;4.60;;;2.53;;
24425;SDS011;12611;44.446;26.000;2023-04-24T05:10:53;5.80;;;2.60;;
24425;SDS011;12611;44.446;26.000;2023-04-24T05:13:21;7.53;;;3.23;;
24425;SDS011;12611;44.446;26.000;2023-04-24T05:16:04;3.73;;;2.40;;
24425;SDS011;12611;44.446;26.000;2023-04-24T05:18:33;6.07;;;2.33;;
24425;SDS011;12611;44.446;26.000;2023-04-24T05:21:03;9.47;;;2.27;;
24425;SDS011;12611;44.446;26.000;2023-04-24T05:23:31;4.37;;;2.00;;
24425;SDS011;12611;44.446;26.000;2023-04-24T05:25:59;4.27;;;2.67;;
24425;SDS011;12611;44.446;26.000;2023-04-24T05:28:31;5.03;;;3.20;;
24425;SDS011;12611;44.446;26.000;2023-04-24T05:30:59;7.53;;;3.10;;
24425;SDS011;12611;44.446;26.000;2023-04-24T05:33:28;6.40;;;3.40;;
24425;SDS011;12611;44.446;26.000;2023-04-24T05:35:57;7.33;;;3.20;;
24425;SDS011;12611;44.446;26.000;2023-04-24T05:38:26;5.57;;;3.03;;
24425;SDS011;12611;44.446;26.000;2023-04-24T05:40:55;5.20;;;3.47;;
24425;SDS011;12611;44.446;26.000;2023-04-24T05:43:23;8.03;;;3.57;;
24425;SDS011;12611;44.446;26.000;2023-04-24T05:45:51;4.50;;;2.53;;
24425;SDS011;12611;44.446;26.000;2023-04-24T05:48:20;7.47;;;3.43;;
24425;SDS011;12611;44.446;26.000;2023-04-24T05:50:49;9.83;;;4.10;;
24425;SDS011;12611;44.446;26.000;2023-04-24T05:53:19;7.00;;;3.20;;
24425;SDS011;12611;44.446;26.000;2023-04-24T05:55:48;7.77;;;3.50;;
24425;SDS011;12611;44.446;26.000;2023-04-24T05:58:17;3.83;;;2.33;;
24425;SDS011;12611;44.446;26.000;2023-04-24T06:00:45;8.77;;;3.37;;
24425;SDS011;12611;44.446;26.000;2023-04-24T06:03:14;5.97;;;3.97;;
24425;SDS011;12611;44.446;26.000;2023-04-24T06:05:42;8.70;;;3.67;;
24425;SDS011;12611;44.446;26.000;2023-04-24T06:08:11;4.47;;;2.87;;
24425;SDS011;12611;44.446;26.000;2023-04-24T06:10:39;8.57;;;3.37;;
24425;SDS011;12611;44.446;26.000;2023-04-24T06:13:09;12.33;;;3.57;;
24425;SDS011;12611;44.446;26.000;2023-04-24T06:15:38;6.73;;;2.87;;
24425;SDS011;12611;44.446;26.000;2023-04-24T06:18:07;8.60;;;3.93;;
24425;SDS011;12611;44.446;26.000;2023-04-24T06:20:36;8.23;;;4.17;;
24425;SDS011;12611;44.446;26.000;2023-04-24T06:23:04;6.97;;;3.80;;
24425;SDS011;12611;44.446;26.000;2023-04-24T06:25:33;9.33;;;4.60;;
24425;SDS011;12611;44.446;26.000;2023-04-24T06:28:01;13.20;;;3.87;;
24425;SDS011;12611;44.446;26.000;2023-04-24T06:30:31;6.40;;;3.87;;
24425;SDS011;12611;44.446;26.000;2023-04-24T06:32:59;7.03;;;3.37;;
24425;SDS011;12611;44.446;26.000;2023-04-24T06:35:44;7.23;;;4.10;;
24425;SDS011;12611;44.446;26.000;2023-04-24T06:38:13;6.07;;;3.73;;
24425;SDS011;12611;44.446;26.000;2023-04-24T06:40:42;4.07;;;2.93;;
24425;SDS011;12611;44.446;26.000;2023-04-24T06:43:11;6.77;;;3.00;;
24425;SDS011;12611;44.446;26.000;2023-04-24T06:45:40;4.80;;;2.63;;
24425;SDS011;12611;44.446;26.000;2023-04-24T06:48:10;4.87;;;3.17;;
24425;SDS011;12611;44.446;26.000;2023-04-24T06:50:38;3.43;;;1.90;;
24425;SDS011;12611;44.446;26.000;2023-04-24T06:53:07;3.77;;;2.97;;
24425;SDS011;12611;44.446;26.000;2023-04-24T06:55:37;6.97;;;2.40;;
24425;SDS011;12611;44.446;26.000;2023-04-24T06:58:05;3.47;;;2.27;;
24425;SDS011;12611;44.446;26.000;2023-04-24T07:00:34;4.07;;;2.33;;
24425;SDS011;12611;44.446;26.000;2023-04-24T07:03:04;4.43;;;2.20;;
24425;SDS011;12611;44.446;26.000;2023-04-24T07:05:32;4.73;;;3.20;;
24425;SDS011;12611;44.446;26.000;2023-04-24T07:08:01;4.50;;;2.50;;
24425;SDS011;12611;44.446;26.000;2023-04-24T07:10:33;3.67;;;2.10;;
24425;SDS011;12611;44.446;26.000;2023-04-24T07:13:02;5.77;;;3.43;;
24425;SDS011;12611;44.446;26.000;2023-04-24T07:15:30;3.90;;;2.13;;
24425;SDS011;12611;44.446;26.000;2023-04-24T07:17:59;3.53;;;1.97;;
24425;SDS011;12611;44.446;26.000;2023-04-24T07:20:32;4.27;;;2.53;;
24425;SDS011;12611;44.446;26.000;2023-04-24T07:23:01;5.43;;;2.70;;
24425;SDS011;12611;44.446;26.000;2023-04-24T07:25:29;3.33;;;2.50;;
24425;SDS011;12611;44.446;26.000;2023-04-24T07:27:58;7.40;;;3.57;;
24425;SDS011;12611;44.446;26.000;2023-04-24T07:30:26;3.77;;;2.43;;
24425;SDS011;12611;44.446;26.000;2023-04-24T07:32:55;4.90;;;2.50;;
24425;SDS011;12611;44.446;26.000;2023-04-24T07:35:24;5.07;;;3.07;;
24425;SDS011;12611;44.446;26.000;2023-04-24T07:37:54;6.50;;;3.53;;
24425;SDS011;12611;44.446;26.000;2023-04-24T07:40:22;5.23;;;2.40;;
24425;SDS011;12611;44.446;26.000;2023-04-24T07:42:51;7.17;;;3.07;;
24425;SDS011;12611;44.446;26.000;2023-04-24T07:45:19;4.10;;;2.10;;
24425;SDS011;12611;44.446;26.000;2023-04-24T07:47:50;3.90;;;2.70;;
24425;SDS011;12611;44.446;26.000;2023-04-24T07:50:18;5.43;;;2.77;;
24425;SDS011;12611;44.446;26.000;2023-04-24T07:52:47;4.67;;;2.70;;
24425;SDS011;12611;44.446;26.000;2023-04-24T07:55:17;4.23;;;2.13;;
24425;SDS011;12611;44.446;26.000;2023-04-24T07:57:49;3.27;;;2.20;;
24425;SDS011;12611;44.446;26.000;2023-04-24T08:00:18;6.43;;;2.37;;
24425;SDS011;12611;44.446;26.000;2023-04-24T08:02:47;3.97;;;2.53;;
24425;SDS011;12611;44.446;26.000;2023-04-24T08:05:16;7.43;;;2.00;;
24425;SDS011;12611;44.446;26.000;2023-04-24T08:07:45;4.47;;;2.57;;
24425;SDS011;12611;44.446;26.000;2023-04-24T08:10:16;8.83;;;1.93;;
24425;SDS011;12611;44.446;26.000;2023-04-24T08:12:44;2.73;;;2.23;;
24425;SDS011;12611;44.446;26.000;2023-04-24T08:15:13;5.60;;;2.30;;
24425;SDS011;12611;44.446;26.000;2023-04-24T08:17:41;3.57;;;1.80;;
24425;SDS011;12611;44.446;26.000;2023-04-24T08:20:10;3.87;;;1.67;;
24425;SDS011;12611;44.446;26.000;2023-04-24T08:22:40;2.83;;;1.33;;
24425;SDS011;12611;44.446;26.000;2023-04-24T08:25:09;2.63;;;1.43;;
24425;SDS011;12611;44.446;26.000;2023-04-24T08:27:40;3.50;;;1.52;;
24425;SDS011;12611;44.446;26.000;2023-04-24T08:30:11;2.97;;;1.87;;
24425;SDS011;12611;44.446;26.000;2023-04-24T08:32:40;3.43;;;1.47;;
24425;SDS011;12611;44.446;26.000;2023-04-24T08:35:08;2.97;;;1.65;;
24425;SDS011;12611;44.446;26.000;2023-04-24T08:37:37;3.03;;;2.08;;
24425;SDS011;12611;44.446;26.000;2023-04-24T08:40:11;5.43;;;2.83;;
24425;SDS011;12611;44.446;26.000;2023-04-24T08:42:43;6.10;;;1.58;;
24425;SDS011;12611;44.446;26.000;2023-04-24T08:45:12;3.95;;;1.25;;
24425;SDS011;12611;44.446;26.000;2023-04-24T08:47:41;3.28;;;1.45;;
24425;SDS011;12611;44.446;26.000;2023-04-24T08:50:10;2.28;;;1.60;;
24425;SDS011;12611;44.446;26.000;2023-04-24T08:52:39;2.63;;;1.10;;
24425;SDS011;12611;44.446;26.000;2023-04-24T08:55:09;1.63;;;0.98;;
24425;SDS011;12611;44.446;26.000;2023-04-24T08:57:37;2.45;;;1.50;;
24425;SDS011;12611;44.446;26.000;2023-04-24T09:00:08;2.03;;;1.15;;
24425;SDS011;12611;44.446;26.000;2023-04-24T09:02:39;1.60;;;1.10;;
24425;SDS011;12611;44.446;26.000;2023-04-24T09:05:10;3.15;;;1.20;;
24425;SDS011;12611;44.446;26.000;2023-04-24T09:07:39;3.72;;;1.30;;
24425;SDS011;12611;44.446;26.000;2023-04-24T09:10:11;1.23;;;0.95;;
24425;SDS011;12611;44.446;26.000;2023-04-24T09:12:40;1.80;;;1.23;;
24425;SDS011;12611;44.446;26.000;2023-04-24T09:15:11;2.45;;;1.20;;
24425;SDS011;12611;44.446;26.000;2023-04-24T09:17:40;5.90;;;1.38;;
24425;SDS011;12611;44.446;26.000;2023-04-24T09:20:08;1.67;;;0.90;;
24425;SDS011;12611;44.446;26.000;2023-04-24T09:22:37;2.00;;;0.88;;
24425;SDS011;12611;44.446;26.000;2023-04-24T09:25:06;1.98;;;1.35;;
24425;SDS011;12611;44.446;26.000;2023-04-24T09:27:35;2.67;;;1.08;;
24425;SDS011;12611;44.446;26.000;2023-04-24T09:30:04;1.48;;;1.10;;
24425;SDS011;12611;44.446;26.000;2023-04-24T09:32:36;5.20;;;1.10;;
24425;SDS011;12611;44.446;26.000;2023-04-24T09:35:18;3.25;;;1.23;;
24425;SDS011;12611;44.446;26.000;2023-04-24T09:37:47;4.82;;;1.17;;
24425;SDS011;12611;44.446;26.000;2023-04-24T09:40:16;2.00;;;1.08;;
24425;SDS011;12611;44.446;26.000;2023-04-24T09:42:46;3.25;;;1.02;;
24425;SDS011;12611;44.446;26.000;2023-04-24T09:45:20;2.17;;;1.35;;
24425;SDS011;12611;44.446;26.000;2023-04-24T09:47:52;3.17;;;0.85;;
24425;SDS011;12611;44.446;26.000;2023-04-24T09:50:21;1.80;;;1.23;;
24425;SDS011;12611;44.446;26.000;2023-04-24T09:52:56;2.15;;;1.40;;
24425;SDS011;12611;44.446;26.000;2023-04-24T09:55:25;2.10;;;1.17;;
24425;SDS011;12611;44.446;26.000;2023-04-24T09:57:55;3.13;;;1.65;;
24425;SDS011;12611;44.446;26.000;2023-04-24T10:00:25;2.78;;;0.93;;
24425;SDS011;12611;44.446;26.000;2023-04-24T10:02:56;2.90;;;0.85;;
24425;SDS011;12611;44.446;26.000;2023-04-24T10:05:27;1.42;;;1.00;;
24425;SDS011;12611;44.446;26.000;2023-04-24T10:07:56;3.72;;;1.38;;
24425;SDS011;12611;44.446;26.000;2023-04-24T10:10:25;1.65;;;0.98;;
24425;SDS011;12611;44.446;26.000;2023-04-24T10:12:54;2.08;;;1.33;;
24425;SDS011;12611;44.446;26.000;2023-04-24T10:15:22;1.90;;;0.90;;
24425;SDS011;12611;44.446;26.000;2023-04-24T10:17:53;6.88;;;1.33;;
24425;SDS011;12611;44.446;26.000;2023-04-24T10:20:26;2.42;;;1.30;;
24425;SDS011;12611;44.446;26.000;2023-04-24T10:22:57;1.60;;;0.90;;
24425;SDS011;12611;44.446;26.000;2023-04-24T10:25:30;1.27;;;1.02;;
24425;SDS011;12611;44.446;26.000;2023-04-24T10:28:00;1.23;;;1.10;;
24425;SDS011;12611;44.446;26.000;2023-04-24T10:30:29;2.22;;;0.73;;
24425;SDS011;12611;44.446;26.000;2023-04-24T10:33:03;3.35;;;1.13;;
24425;SDS011;12611;44.446;26.000;2023-04-24T10:35:32;9.73;;;1.75;;
24425;SDS011;12611;44.446;26.000;2023-04-24T10:38:05;0.85;;;0.75;;
24425;SDS011;12611;44.446;26.000;2023-04-24T10:40:35;2.47;;;1.40;;
24425;SDS011;12611;44.446;26.000;2023-04-24T10:43:04;2.40;;;1.20;;
24425;SDS011;12611;44.446;26.000;2023-04-24T10:45:34;1.15;;;0.90;;
24425;SDS011;12611;44.446;26.000;2023-04-24T10:48:05;4.90;;;1.10;;
24425;SDS011;12611;44.446;26.000;2023-04-24T10:50:44;1.55;;;1.17;;
24425;SDS011;12611;44.446;26.000;2023-04-24T10:53:15;3.05;;;1.15;;
24425;SDS011;12611;44.446;26.000;2023-04-24T10:55:45;2.15;;;1.27;;
24425;SDS011;12611;44.446;26.000;2023-04-24T10:58:15;1.45;;;1.15;;
24425;SDS011;12611;44.446;26.000;2023-04-24T11:00:48;4.00;;;1.20;;
24425;SDS011;12611;44.446;26.000;2023-04-24T11:03:26;2.45;;;1.45;;
24425;SDS011;12611;44.446;26.000;2023-04-24T11:05:56;1.58;;;0.98;;
24425;SDS011;12611;44.446;26.000;2023-04-24T11:08:28;2.08;;;1.08;;
24425;SDS011;12611;44.446;26.000;2023-04-24T11:10:58;1.85;;;1.30;;
24425;SDS011;12611;44.446;26.000;2023-04-24T11:16:30;1.10;;;0.80;;
24425;SDS011;12611;44.446;26.000;2023-04-24T11:19:02;1.92;;;0.90;;
24425;SDS011;12611;44.446;26.000;2023-04-24T11:21:38;5.45;;;1.30;;
24425;SDS011;12611;44.446;26.000;2023-04-24T11:24:26;1.90;;;1.25;;
24425;SDS011;12611;44.446;26.000;2023-04-24T11:26:59;3.67;;;1.23;;
24425;SDS011;12611;44.446;26.000;2023-04-24T11:29:47;1.95;;;1.45;;
24425;SDS011;12611;44.446;26.000;2023-04-24T11:32:23;1.42;;;0.80;;
24425;SDS011;12611;44.446;26.000;2023-04-24T11:34:55;1.27;;;0.77;;
24425;SDS011;12611;44.446;26.000;2023-04-24T11:37:26;3.30;;;1.20;;
24425;SDS011;12611;44.446;26.000;2023-04-24T11:39:56;2.03;;;0.82;;
24425;SDS011;12611;44.446;26.000;2023-04-24T11:42:26;6.57;;;1.40;;
24425;SDS011;12611;44.446;26.000;2023-04-24T11:44:56;2.15;;;1.20;;
24425;SDS011;12611;44.446;26.000;2023-04-24T11:47:27;2.58;;;1.20;;
24425;SDS011;12611;44.446;26.000;2023-04-24T11:49:59;1.75;;;0.90;;
24425;SDS011;12611;44.446;26.000;2023-04-24T11:52:29;2.20;;;1.00;;
24425;SDS011;12611;44.446;26.000;2023-04-24T11:54:58;1.67;;;1.00;;
24425;SDS011;12611;44.446;26.000;2023-04-24T11:57:28;2.42;;;1.45;;
24425;SDS011;12611;44.446;26.000;2023-04-24T12:00:00;2.30;;;1.13;;
24425;SDS011;12611;44.446;26.000;2023-04-24T12:02:31;1.63;;;1.00;;
24425;SDS011;12611;44.446;26.000;2023-04-24T12:05:01;2.08;;;1.17;;
24425;SDS011;12611;44.446;26.000;2023-04-24T12:07:30;2.53;;;1.15;;
24425;SDS011;12611;44.446;26.000;2023-04-24T12:10:09;2.15;;;1.55;;
24425;SDS011;12611;44.446;26.000;2023-04-24T12:12:37;1.58;;;0.95;;
24425;SDS011;12611;44.446;26.000;2023-04-24T12:15:06;4.40;;;0.85;;
24425;SDS011;12611;44.446;26.000;2023-04-24T12:17:36;2.15;;;1.08;;
24425;SDS011;12611;44.446;26.000;2023-04-24T12:20:11;1.67;;;1.27;;
24425;SDS011;12611;44.446;26.000;2023-04-24T12:22:44;1.80;;;1.10;;
24425;SDS011;12611;44.446;26.000;2023-04-24T12:25:15;1.20;;;0.85;;
24425;SDS011;12611;44.446;26.000;2023-04-24T12:27:44;2.22;;;1.00;;
24425;SDS011;12611;44.446;26.000;2023-04-24T12:30:14;4.32;;;0.80;;
24425;SDS011;12611;44.446;26.000;2023-04-24T12:32:44;1.88;;;1.02;;
24425;SDS011;12611;44.446;26.000;2023-04-24T12:35:18;2.08;;;1.42;;
24425;SDS011;12611;44.446;26.000;2023-04-24T12:37:48;2.22;;;0.85;;
24425;SDS011;12611;44.446;26.000;2023-04-24T12:40:17;1.23;;;0.77;;
24425;SDS011;12611;44.446;26.000;2023-04-24T12:42:46;1.83;;;0.82;;
24425;SDS011;12611;44.446;26.000;2023-04-24T12:45:16;1.60;;;1.00;;
24425;SDS011;12611;44.446;26.000;2023-04-24T12:47:46;1.70;;;1.27;;
24425;SDS011;12611;44.446;26.000;2023-04-24T12:50:17;3.28;;;1.08;;
24425;SDS011;12611;44.446;26.000;2023-04-24T12:52:46;2.33;;;1.08;;
24425;SDS011;12611;44.446;26.000;2023-04-24T12:55:14;2.03;;;1.10;;
24425;SDS011;12611;44.446;26.000;2023-04-24T12:57:42;1.92;;;1.20;;
24425;SDS011;12611;44.446;26.000;2023-04-24T13:00:11;5.78;;;1.25;;
24425;SDS011;12611;44.446;26.000;2023-04-24T13:02:41;1.70;;;1.00;;
24425;SDS011;12611;44.446;26.000;2023-04-24T13:05:10;1.77;;;1.08;;
24425;SDS011;12611;44.446;26.000;2023-04-24T13:07:41;5.78;;;1.35;;
24425;SDS011;12611;44.446;26.000;2023-04-24T13:10:10;2.28;;;1.17;;
24425;SDS011;12611;44.446;26.000;2023-04-24T13:12:39;2.92;;;0.95;;
24425;SDS011;12611;44.446;26.000;2023-04-24T13:15:11;1.25;;;0.90;;
24425;SDS011;12611;44.446;26.000;2023-04-24T13:17:40;1.75;;;1.13;;
24425;SDS011;12611;44.446;26.000;2023-04-24T13:20:08;1.98;;;0.90;;
24425;SDS011;12611;44.446;26.000;2023-04-24T13:22:37;1.35;;;0.90;;
24425;SDS011;12611;44.446;26.000;2023-04-24T13:25:07;1.90;;;1.23;;
24425;SDS011;12611;44.446;26.000;2023-04-24T13:27:37;1.60;;;0.95;;
24425;SDS011;12611;44.446;26.000;2023-04-24T13:30:06;2.90;;;1.40;;
24425;SDS011;12611;44.446;26.000;2023-04-24T13:32:36;3.35;;;1.30;;
24425;SDS011;12611;44.446;26.000;2023-04-24T13:35:04;1.50;;;1.08;;
24425;SDS011;12611;44.446;26.000;2023-04-24T13:37:33;1.13;;;0.90;;
24425;SDS011;12611;44.446;26.000;2023-04-24T13:40:01;4.40;;;1.10;;
24425;SDS011;12611;44.446;26.000;2023-04-24T13:42:34;5.13;;;1.40;;
24425;SDS011;12611;44.446;26.000;2023-04-24T13:45:05;2.28;;;1.50;;
24425;SDS011;12611;44.446;26.000;2023-04-24T13:47:49;1.00;;;0.73;;
24425;SDS011;12611;44.446;26.000;2023-04-24T13:50:18;2.22;;;1.27;;
24425;SDS011;12611;44.446;26.000;2023-04-24T13:52:47;1.48;;;1.25;;
24425;SDS011;12611;44.446;26.000;2023-04-24T13:55:15;1.75;;;0.82;;
24425;SDS011;12611;44.446;26.000;2023-04-24T13:57:45;1.90;;;0.98;;
24425;SDS011;12611;44.446;26.000;2023-04-24T14:00:14;1.05;;;0.80;;
24425;SDS011;12611;44.446;26.000;2023-04-24T14:02:43;1.63;;;0.95;;
24425;SDS011;12611;44.446;26.000;2023-04-24T14:05:12;2.00;;;1.17;;
24425;SDS011;12611;44.446;26.000;2023-04-24T14:07:41;1.40;;;0.90;;
24425;SDS011;12611;44.446;26.000;2023-04-24T14:10:10;4.18;;;2.17;;
24425;SDS011;12611;44.446;26.000;2023-04-24T14:12:38;3.80;;;1.23;;
24425;SDS011;12611;44.446;26.000;2023-04-24T14:15:09;2.80;;;1.10;;
24425;SDS011;12611;44.446;26.000;2023-04-24T14:17:39;1.23;;;0.80;;
24425;SDS011;12611;44.446;26.000;2023-04-24T14:20:08;2.30;;;1.40;;
24425;SDS011;12611;44.446;26.000;2023-04-24T14:22:37;6.78;;;1.52;;
24425;SDS011;12611;44.446;26.000;2023-04-24T14:25:06;4.65;;;1.60;;
24425;SDS011;12611;44.446;26.000;2023-04-24T14:27:35;3.42;;;1.20;;
24425;SDS011;12611;44.446;26.000;2023-04-24T14:30:03;10.75;;;1.65;;
24425;SDS011;12611;44.446;26.000;2023-04-24T14:32:34;5.97;;;1.83;;
24425;SDS011;12611;44.446;26.000;2023-04-24T14:35:03;7.32;;;1.33;;
24425;SDS011;12611;44.446;26.000;2023-04-24T14:37:32;5.20;;;1.40;;
24425;SDS011;12611;44.446;26.000;2023-04-24T14:40:00;2.70;;;1.80;;
24425;SDS011;12611;44.446;26.000;2023-04-24T14:42:49;2.33;;;1.20;;
24425;SDS011;12611;44.446;26.000;2023-04-24T14:45:18;5.53;;;1.42;;
24425;SDS011;12611;44.446;26.000;2023-04-24T14:47:51;1.60;;;1.08;;
24425;SDS011;12611;44.446;26.000;2023-04-24T14:50:20;3.40;;;1.42;;